createdAt,value
2023-02-19T00:00:00.155Z,81.46
2023-02-19T00:02:28.501Z,81.31
2023-02-19T00:04:56.500Z,81.18
2023-02-19T00:07:24.316Z,80.92
2023-02-19T00:09:52.160Z,80.69
2023-02-19T00:12:20.021Z,80.51
2023-02-19T00:14:47.891Z,80.35
2023-02-19T00:17:15.742Z,79.88
2023-02-19T00:19:43.512Z,79.75
2023-02-19T00:22:12.311Z,79.43
2023-02-19T00:24:40.303Z,79.49
2023-02-19T00:27:08.298Z,79.17
2023-02-19T00:29:36.255Z,79.19
2023-02-19T00:32:04.672Z,79.16
2023-02-19T00:34:32.541Z,79.26
2023-02-19T00:37:00.451Z,79.44
2023-02-19T00:39:28.506Z,79.53
2023-02-19T00:41:56.467Z,79.81
2023-02-19T00:44:24.279Z,79.98
2023-02-19T00:46:52.155Z,80.21
2023-02-19T00:49:23.222Z,80.41
2023-02-19T00:51:53.234Z,80.41
2023-02-19T00:54:23.071Z,80.45
2023-02-19T00:56:51.778Z,80.47
2023-02-19T00:59:19.795Z,80.44
2023-02-19T01:01:47.719Z,80.36
2023-02-19T01:04:16.492Z,80.33
2023-02-19T01:06:44.399Z,80.16
2023-02-19T01:09:12.308Z,79.94
2023-02-19T01:11:40.528Z,79.82
2023-02-19T01:14:10.657Z,79.84
2023-02-19T01:16:38.579Z,79.73
2023-02-19T01:19:06.421Z,79.74
2023-02-19T01:21:34.317Z,79.66
2023-02-19T01:24:02.381Z,79.67
2023-02-19T01:26:32.966Z,79.67
2023-02-19T01:29:02.301Z,79.69
2023-02-19T01:31:31.055Z,79.69
2023-02-19T01:34:02.563Z,79.79
2023-02-19T01:36:34.275Z,79.84
2023-02-19T01:39:05.625Z,80.01
2023-02-19T01:41:38.951Z,80.12
2023-02-19T01:44:17.886Z,80.12
2023-02-19T01:46:48.504Z,80.24
2023-02-19T01:49:48.927Z,80.15
2023-02-19T01:52:34.206Z,80.07
2023-02-19T01:55:07.483Z,80.00
2023-02-19T01:57:43.913Z,79.95
2023-02-19T02:00:15.826Z,80.00
2023-02-19T02:02:51.106Z,79.92
2023-02-19T02:06:02.412Z,79.79
2023-02-19T02:08:51.799Z,79.78
2023-02-19T02:11:22.060Z,79.61
2023-02-19T02:13:51.556Z,79.54
2023-02-19T02:16:57.436Z,79.42
2023-02-19T02:19:46.491Z,79.28
2023-02-19T02:22:29.467Z,79.05
2023-02-19T02:25:17.368Z,78.83
2023-02-19T02:28:06.690Z,78.75
2023-02-19T02:30:45.010Z,78.77
2023-02-19T02:33:43.492Z,78.56
2023-02-19T02:36:31.048Z,78.56
2023-02-19T02:39:03.474Z,78.50
2023-02-19T02:41:33.592Z,78.44
2023-02-19T02:44:02.014Z,78.37
2023-02-19T02:46:38.739Z,78.49
2023-02-19T02:49:16.152Z,78.43
2023-02-19T02:51:52.774Z,78.39
2023-02-19T02:54:50.190Z,78.41
2023-02-19T02:57:20.101Z,78.04
2023-02-19T02:59:52.120Z,77.79
2023-02-19T03:02:30.644Z,77.56
2023-02-19T03:05:40.487Z,77.26
2023-02-19T03:08:19.889Z,77.22
2023-02-19T03:11:20.190Z,76.99
2023-02-19T03:14:09.585Z,76.81
2023-02-19T03:17:00.247Z,76.52
2023-02-19T03:19:33.285Z,76.85
2023-02-19T03:22:19.954Z,77.01
2023-02-19T03:25:23.850Z,76.89
2023-02-19T03:27:54.320Z,77.10
2023-02-19T03:30:29.488Z,77.04
2023-02-19T03:33:08.289Z,77.16
2023-02-19T03:35:49.910Z,77.17
2023-02-19T03:38:30.023Z,77.02
2023-02-19T03:41:23.400Z,77.08
2023-02-19T03:44:09.825Z,76.98
2023-02-19T03:46:58.292Z,77.04
2023-02-19T03:49:42.155Z,76.90
2023-02-19T03:52:56.343Z,76.80
2023-02-19T03:55:49.102Z,76.84
2023-02-19T03:59:05.564Z,76.72
2023-02-19T04:02:16.984Z,76.76
2023-02-19T04:05:02.812Z,76.81
2023-02-19T04:07:38.865Z,76.62
2023-02-19T04:10:09.236Z,76.20
2023-02-19T04:12:45.812Z,76.38
2023-02-19T04:15:21.856Z,76.25
2023-02-19T04:18:18.775Z,75.92
2023-02-19T04:20:48.542Z,76.09
2023-02-19T04:23:22.624Z,75.98
2023-02-19T04:25:56.805Z,75.65
2023-02-19T04:28:24.696Z,75.78
2023-02-19T04:30:52.750Z,76.01
2023-02-19T04:33:20.564Z,76.00
2023-02-19T04:35:48.398Z,75.89
2023-02-19T04:38:16.304Z,75.52
2023-02-19T04:40:44.140Z,75.67
2023-02-19T04:43:11.927Z,75.91
2023-02-19T04:45:39.785Z,75.99
2023-02-19T04:48:07.644Z,76.03
2023-02-19T04:50:39.528Z,75.91
2023-02-19T04:53:08.124Z,75.70
2023-02-19T04:55:39.541Z,75.93
2023-02-19T04:58:07.449Z,75.87
2023-02-19T05:00:35.297Z,75.82
2023-02-19T05:03:03.148Z,75.89
2023-02-19T05:05:31.134Z,75.87
2023-02-19T05:07:58.925Z,75.67
2023-02-19T05:10:26.812Z,75.72
2023-02-19T05:12:57.859Z,76.05
2023-02-19T05:15:25.955Z,75.92
2023-02-19T05:17:53.760Z,75.96
2023-02-19T05:20:23.037Z,75.75
2023-02-19T05:22:50.955Z,75.85
2023-02-19T05:25:18.727Z,75.86
2023-02-19T05:27:46.570Z,75.37
2023-02-19T05:30:14.635Z,75.68
2023-02-19T05:32:42.414Z,75.60
2023-02-19T05:35:10.532Z,75.52
2023-02-19T05:37:38.363Z,75.83
2023-02-19T05:40:06.434Z,75.96
2023-02-19T05:42:34.317Z,75.94
2023-02-19T05:45:02.255Z,76.00
2023-02-19T05:47:30.075Z,76.17
2023-02-19T05:49:57.880Z,76.27
2023-02-19T05:52:25.674Z,76.42
2023-02-19T05:54:53.596Z,76.59
2023-02-19T05:57:21.562Z,76.70
2023-02-19T05:59:49.414Z,76.79
2023-02-19T06:02:17.211Z,76.81
2023-02-19T06:04:44.979Z,76.79
2023-02-19T06:07:12.883Z,76.88
2023-02-19T06:09:40.680Z,76.89
2023-02-19T06:12:08.464Z,76.87
2023-02-19T06:14:36.222Z,76.82
2023-02-19T06:17:04.013Z,77.00
2023-02-19T06:19:31.900Z,77.10
2023-02-19T06:21:59.757Z,77.19
2023-02-19T06:24:27.670Z,77.23
2023-02-19T06:26:55.481Z,77.32
2023-02-19T06:29:23.328Z,77.43
2023-02-19T06:31:51.453Z,77.47
2023-02-19T06:34:19.364Z,77.58
2023-02-19T06:36:49.603Z,77.69
2023-02-19T06:39:17.552Z,77.80
2023-02-19T06:41:45.345Z,77.87
2023-02-19T06:44:13.288Z,77.94
2023-02-19T06:46:41.452Z,77.96
2023-02-19T06:49:09.427Z,77.91
2023-02-19T06:51:37.262Z,77.89
2023-02-19T06:54:05.134Z,77.99
2023-02-19T06:56:41.918Z,78.08
2023-02-19T06:59:18.848Z,78.08
2023-02-19T07:01:46.825Z,78.18
2023-02-19T07:04:14.864Z,78.22
2023-02-19T07:06:42.922Z,78.11
2023-02-19T07:09:11.942Z,78.10
2023-02-19T07:11:40.308Z,77.98
2023-02-19T07:14:15.684Z,77.92
2023-02-19T07:16:44.637Z,77.70
2023-02-19T07:19:12.868Z,77.61
2023-02-19T07:21:42.335Z,77.51
2023-02-19T07:24:10.526Z,77.50
2023-02-19T07:26:38.592Z,77.49
2023-02-19T07:29:07.549Z,77.48
2023-02-19T07:31:35.475Z,77.47
2023-02-19T07:34:03.438Z,77.52
2023-02-19T07:36:31.295Z,77.40
2023-02-19T07:39:00.193Z,77.41
2023-02-19T07:41:28.437Z,77.42
2023-02-19T07:43:58.640Z,77.50
2023-02-19T07:46:26.843Z,77.42
2023-02-19T07:48:54.702Z,77.47
2023-02-19T07:51:23.147Z,77.34
2023-02-19T07:53:51.701Z,77.39
2023-02-19T07:56:20.840Z,77.36
2023-02-19T07:58:49.649Z,77.34
2023-02-19T08:01:42.294Z,77.33
2023-02-19T08:04:13.525Z,77.37
2023-02-19T08:06:42.777Z,77.20
2023-02-19T08:09:11.384Z,77.26
2023-02-19T08:11:57.977Z,77.21
2023-02-19T08:14:29.349Z,77.26
2023-02-19T08:16:57.503Z,77.29
2023-02-19T08:19:25.412Z,77.22
2023-02-19T08:21:53.680Z,77.16
2023-02-19T08:24:21.592Z,76.95
2023-02-19T08:26:49.661Z,77.03
2023-02-19T08:29:17.557Z,76.83
2023-02-19T08:31:45.625Z,76.51
2023-02-19T08:34:13.536Z,76.54
2023-02-19T08:36:41.393Z,76.58
2023-02-19T08:39:09.358Z,76.47
2023-02-19T08:41:37.326Z,76.66
2023-02-19T08:44:05.304Z,76.36
2023-02-19T08:46:34.406Z,76.58
2023-02-19T08:49:02.501Z,76.70
2023-02-19T08:51:30.444Z,76.50
2023-02-19T08:53:58.327Z,76.63
2023-02-19T08:56:26.200Z,76.46
2023-02-19T08:58:54.147Z,76.36
2023-02-19T09:01:22.038Z,76.18
2023-02-19T09:03:49.946Z,75.86
2023-02-19T09:06:20.699Z,75.62
2023-02-19T09:08:48.718Z,75.51
2023-02-19T09:11:17.106Z,75.64
2023-02-19T09:13:45.145Z,75.11
2023-02-19T09:16:13.226Z,75.36
2023-02-19T09:18:41.182Z,75.24
2023-02-19T09:21:09.350Z,74.81
2023-02-19T09:23:37.997Z,75.09
2023-02-19T09:26:09.328Z,74.71
2023-02-19T09:28:39.677Z,74.94
2023-02-19T09:31:11.660Z,74.44
2023-02-19T09:33:44.665Z,74.42
2023-02-19T09:36:14.634Z,73.96
2023-02-19T09:38:43.276Z,73.89
2023-02-19T09:41:28.828Z,74.00
2023-02-19T09:44:03.408Z,73.84
2023-02-19T09:46:52.441Z,73.14
2023-02-19T09:49:36.696Z,72.54
2023-02-19T09:52:22.201Z,72.31
2023-02-19T09:54:51.617Z,72.30
2023-02-19T09:57:21.687Z,72.36
2023-02-19T10:00:00.307Z,71.83
2023-02-19T10:02:30.235Z,71.05
2023-02-19T10:04:59.053Z,70.24
2023-02-19T10:07:44.511Z,70.83
2023-02-19T10:10:15.291Z,70.40
2023-02-19T10:12:50.570Z,69.19
2023-02-19T10:15:33.790Z,68.17
2023-02-19T10:18:04.292Z,68.83
2023-02-19T10:20:32.412Z,68.98
2023-02-19T10:23:06.256Z,68.07
2023-02-19T10:25:36.431Z,66.54
2023-02-19T10:28:07.098Z,65.96
2023-02-19T10:30:36.134Z,66.80
2023-02-19T10:33:16.483Z,64.83
2023-02-19T10:36:07.942Z,64.40
2023-02-19T10:38:40.282Z,64.25
2023-02-19T10:41:17.795Z,63.79
2023-02-19T10:44:14.335Z,63.94
2023-02-19T10:46:47.122Z,63.93
2023-02-19T10:49:23.000Z,63.18
2023-02-19T10:51:55.015Z,63.17
2023-02-19T10:54:32.554Z,63.92
2023-02-19T10:57:15.685Z,63.04
2023-02-19T10:59:58.177Z,62.49
2023-02-19T11:02:28.408Z,62.76
2023-02-19T11:05:12.098Z,62.03
2023-02-19T11:07:50.409Z,61.91
2023-02-19T11:10:28.689Z,62.99
2023-02-19T11:13:01.611Z,63.86
2023-02-19T11:15:35.519Z,62.98
2023-02-19T11:18:31.979Z,63.21
2023-02-19T11:21:03.695Z,63.67
2023-02-19T11:23:45.692Z,64.69
2023-02-19T11:26:24.146Z,64.75
2023-02-19T11:28:58.730Z,64.85
2023-02-19T11:31:36.050Z,64.29
2023-02-19T11:34:24.623Z,64.15
2023-02-19T11:37:31.027Z,64.03
2023-02-19T11:39:58.956Z,64.83
2023-02-19T11:42:48.390Z,63.63
2023-02-19T11:45:38.826Z,63.30
2023-02-19T11:48:37.694Z,63.87
2023-02-19T11:51:30.380Z,63.91
2023-02-19T11:54:40.021Z,63.61
2023-02-19T11:57:29.056Z,63.34
2023-02-19T12:00:18.460Z,63.85
2023-02-19T12:03:01.190Z,63.75
2023-02-19T12:05:48.214Z,62.89
2023-02-19T12:08:28.047Z,63.29
2023-02-19T12:11:30.294Z,63.02
2023-02-19T12:14:32.651Z,63.26
2023-02-19T12:17:34.046Z,62.27
2023-02-19T12:20:23.930Z,63.03
2023-02-19T12:23:13.024Z,63.19
2023-02-19T12:26:08.927Z,63.15
2023-02-19T12:28:49.019Z,63.72
2023-02-19T12:32:34.511Z,63.54
2023-02-19T12:35:32.382Z,63.50
2023-02-19T12:38:47.717Z,63.99
2023-02-19T12:41:24.678Z,63.70
2023-02-19T12:44:09.016Z,62.51
2023-02-19T12:46:43.145Z,62.83
2023-02-19T12:49:21.761Z,63.31
2023-02-19T12:51:57.507Z,62.98
2023-02-19T12:54:30.576Z,62.84
2023-02-19T12:57:13.478Z,61.91
2023-02-19T13:00:25.008Z,62.44
2023-02-19T13:03:20.920Z,62.60
2023-02-19T13:06:18.747Z,62.86
2023-02-19T13:09:23.793Z,62.96
2023-02-19T13:12:01.945Z,62.52
2023-02-19T13:14:40.369Z,63.23
2023-02-19T13:17:20.333Z,63.11
2023-02-19T13:19:55.605Z,63.19
2023-02-19T13:23:01.253Z,63.93
2023-02-19T13:26:23.585Z,62.94
2023-02-19T13:30:04.548Z,62.91
2023-02-19T13:32:52.552Z,62.78
2023-02-19T13:35:35.497Z,63.53
2023-02-19T13:40:42.498Z,63.15
2023-02-19T13:43:42.868Z,63.33
2023-02-19T13:46:16.433Z,63.31
2023-02-19T13:48:44.599Z,63.49
2023-02-19T13:51:24.686Z,64.03
2023-02-19T13:54:13.873Z,64.38
2023-02-19T13:56:42.215Z,64.26
2023-02-19T13:59:22.108Z,64.59
2023-02-19T14:01:52.804Z,64.94
2023-02-19T14:04:43.079Z,65.04
2023-02-19T14:07:10.928Z,64.94
2023-02-19T14:09:43.750Z,64.59
2023-02-19T14:12:15.850Z,64.54
2023-02-19T14:14:55.740Z,64.69
2023-02-19T14:17:35.730Z,64.44
2023-02-19T14:20:09.739Z,64.80
2023-02-19T14:22:53.108Z,64.45
2023-02-19T14:25:58.303Z,64.66
2023-02-19T14:28:36.329Z,63.98
2023-02-19T14:31:22.464Z,63.60
2023-02-19T14:33:55.207Z,63.24
2023-02-19T14:36:56.704Z,63.15
2023-02-19T14:39:26.767Z,63.83
2023-02-19T14:42:01.700Z,63.98
2023-02-19T14:44:43.983Z,64.13
2023-02-19T14:47:18.894Z,63.19
2023-02-19T14:50:07.415Z,62.88
2023-02-19T14:52:48.303Z,62.86
2023-02-19T14:55:35.025Z,62.30
2023-02-19T14:58:21.260Z,62.29
2023-02-19T15:00:49.210Z,62.22
2023-02-19T15:03:34.883Z,62.33
2023-02-19T15:06:14.181Z,62.76
2023-02-19T15:08:48.525Z,62.74
2023-02-19T15:11:28.646Z,63.08
2023-02-19T15:14:02.759Z,63.17
2023-02-19T15:16:34.299Z,62.93
2023-02-19T15:19:08.230Z,62.78
2023-02-19T15:21:48.010Z,62.94
2023-02-19T15:24:18.916Z,63.03
2023-02-19T15:26:55.562Z,63.07
2023-02-19T15:29:27.223Z,63.12
2023-02-19T15:31:59.745Z,63.35
2023-02-19T15:34:32.140Z,62.34
2023-02-19T15:37:09.169Z,62.14
2023-02-19T15:39:44.712Z,61.87
2023-02-19T15:42:25.053Z,61.58
2023-02-19T15:45:03.288Z,61.82
2023-02-19T15:48:03.184Z,61.53
2023-02-19T15:50:36.009Z,61.54
2023-02-19T15:53:23.265Z,61.57
2023-02-19T15:56:11.654Z,60.90
2023-02-19T15:58:50.652Z,61.45
2023-02-19T16:01:25.700Z,61.68
2023-02-19T16:03:55.416Z,61.92
2023-02-19T16:06:29.063Z,61.79
2023-02-19T16:09:06.051Z,61.59
2023-02-19T16:11:53.458Z,61.61
2023-02-19T16:14:32.707Z,61.96
2023-02-19T16:17:15.580Z,62.04
2023-02-19T16:19:43.689Z,62.35
2023-02-19T16:22:17.000Z,62.75
2023-02-19T16:24:52.877Z,62.78
2023-02-19T16:27:40.518Z,62.93
2023-02-19T16:30:15.180Z,63.36
2023-02-19T16:32:45.463Z,63.73
2023-02-19T16:35:42.691Z,64.04
2023-02-19T16:38:19.985Z,64.55
2023-02-19T16:40:50.999Z,64.70
2023-02-19T16:43:30.691Z,64.96
2023-02-19T16:46:00.658Z,65.18
2023-02-19T16:48:28.820Z,65.34
2023-02-19T16:50:56.924Z,65.52
2023-02-19T16:53:25.471Z,65.71
2023-02-19T16:55:53.336Z,65.78
2023-02-19T16:58:21.480Z,65.77
2023-02-19T17:00:49.432Z,65.97
2023-02-19T17:03:25.068Z,66.13
2023-02-19T17:05:53.365Z,66.40
2023-02-19T17:08:28.178Z,66.61
2023-02-19T17:10:56.316Z,66.74
2023-02-19T17:13:24.227Z,66.98
2023-02-19T17:15:52.313Z,67.19
2023-02-19T17:18:20.291Z,67.43
2023-02-19T17:21:12.518Z,67.57
2023-02-19T17:23:40.489Z,67.84
2023-02-19T17:26:19.343Z,68.05
2023-02-19T17:28:48.295Z,68.39
2023-02-19T17:31:16.753Z,68.60
2023-02-19T17:33:46.807Z,68.84
2023-02-19T17:36:19.897Z,69.03
2023-02-19T17:38:48.111Z,69.20
2023-02-19T17:41:15.995Z,69.47
2023-02-19T17:43:43.910Z,69.66
2023-02-19T17:46:22.101Z,69.75
2023-02-19T17:48:50.864Z,70.02
2023-02-19T17:51:18.700Z,70.22
2023-02-19T17:53:46.746Z,70.46
2023-02-19T17:56:25.445Z,71.03
2023-02-19T17:58:55.235Z,71.09
2023-02-19T18:01:23.959Z,71.25
2023-02-19T18:03:53.161Z,71.46
2023-02-19T18:06:21.063Z,71.83
2023-02-19T18:08:52.215Z,72.01
2023-02-19T18:11:22.706Z,72.12
2023-02-19T18:13:52.273Z,72.17
2023-02-19T18:16:21.143Z,71.98
2023-02-19T18:18:49.040Z,71.97
2023-02-19T18:21:16.957Z,71.76
2023-02-19T18:23:46.721Z,71.86
2023-02-19T18:26:21.300Z,72.01
2023-02-19T18:28:49.222Z,72.08
2023-02-19T18:31:17.199Z,72.44
2023-02-19T18:33:45.162Z,72.60
2023-02-19T18:36:13.239Z,72.77
2023-02-19T18:38:41.155Z,72.95
2023-02-19T18:41:19.816Z,73.09
2023-02-19T18:43:48.640Z,73.37
2023-02-19T18:46:21.114Z,73.70
2023-02-19T18:48:49.086Z,74.08
2023-02-19T18:51:16.909Z,74.36
2023-02-19T18:53:44.737Z,74.53
2023-02-19T18:56:12.573Z,74.74
2023-02-19T18:58:40.806Z,74.97
2023-02-19T19:01:09.547Z,75.18
2023-02-19T19:03:37.540Z,75.51
2023-02-19T19:06:05.601Z,75.69
2023-02-19T19:08:33.656Z,76.03
2023-02-19T19:11:01.422Z,76.52
2023-02-19T19:13:29.472Z,76.85
2023-02-19T19:15:57.392Z,77.14
2023-02-19T19:18:25.419Z,77.27
2023-02-19T19:20:56.612Z,77.40
2023-02-19T19:23:24.542Z,77.64
2023-02-19T19:25:53.994Z,77.84
2023-02-19T19:28:23.071Z,77.93
2023-02-19T19:30:51.141Z,77.98
2023-02-19T19:33:19.326Z,78.10
2023-02-19T19:35:48.122Z,78.00
2023-02-19T19:38:16.117Z,78.41
2023-02-19T19:40:44.111Z,78.12
2023-02-19T19:43:12.979Z,78.62
2023-02-19T19:45:40.900Z,78.72
2023-02-19T19:48:08.863Z,78.76
2023-02-19T19:50:36.777Z,79.23
2023-02-19T19:53:04.616Z,79.52
2023-02-19T19:55:32.395Z,79.69
2023-02-19T19:58:00.993Z,79.74
2023-02-19T20:00:29.160Z,79.63
2023-02-19T20:02:57.216Z,79.60
2023-02-19T20:05:25.206Z,79.88
2023-02-19T20:07:54.468Z,79.83
2023-02-19T20:10:22.362Z,79.90
2023-02-19T20:12:50.913Z,80.14
2023-02-19T20:15:23.575Z,80.09
2023-02-19T20:17:51.520Z,80.15
2023-02-19T20:20:21.500Z,80.51
2023-02-19T20:22:53.200Z,80.34
2023-02-19T20:25:24.621Z,80.63
2023-02-19T20:27:53.423Z,81.09
2023-02-19T20:30:24.027Z,80.97
2023-02-19T20:32:53.420Z,81.04
2023-02-19T20:35:21.526Z,80.96
2023-02-19T20:37:49.456Z,80.79
2023-02-19T20:40:18.293Z,80.86
2023-02-19T20:42:46.119Z,80.99
2023-02-19T20:45:16.691Z,81.04
2023-02-19T20:47:44.938Z,81.38
2023-02-19T20:50:15.439Z,81.54
2023-02-19T20:52:43.310Z,81.32
2023-02-19T20:55:11.974Z,81.41
2023-02-19T20:57:39.837Z,81.68
2023-02-19T21:00:09.464Z,81.53
2023-02-19T21:02:37.376Z,81.51
2023-02-19T21:05:05.720Z,81.54
2023-02-19T21:07:33.625Z,81.51
2023-02-19T21:10:01.575Z,81.86
2023-02-19T21:12:29.429Z,81.61
2023-02-19T21:14:57.280Z,81.73
2023-02-19T21:17:25.230Z,81.74
2023-02-19T21:19:53.177Z,81.92
2023-02-19T21:22:23.448Z,81.82
2023-02-19T21:24:53.053Z,82.29
2023-02-19T21:27:21.348Z,82.43
2023-02-19T21:29:49.420Z,82.14
2023-02-19T21:32:17.432Z,82.37
2023-02-19T21:34:45.552Z,82.19
2023-02-19T21:37:13.400Z,82.10
2023-02-19T21:39:42.797Z,82.31
2023-02-19T21:42:10.777Z,82.61
2023-02-19T21:44:38.607Z,82.48
2023-02-19T21:47:06.828Z,82.56
2023-02-19T21:49:34.690Z,82.82
2023-02-19T21:52:02.545Z,82.64
2023-02-19T21:54:30.376Z,82.69
2023-02-19T21:57:03.028Z,82.51
2023-02-19T21:59:31.041Z,82.65
2023-02-19T22:01:59.008Z,82.53
2023-02-19T22:04:27.374Z,82.38
2023-02-19T22:06:56.555Z,82.63
2023-02-19T22:09:24.660Z,82.64
2023-02-19T22:11:52.495Z,82.51
2023-02-19T22:14:20.382Z,82.79
2023-02-19T22:16:48.200Z,82.98
2023-02-19T22:19:16.363Z,82.75
2023-02-19T22:21:45.188Z,82.99
2023-02-19T22:24:21.763Z,83.15
2023-02-19T22:26:51.037Z,83.52
2023-02-19T22:29:19.425Z,83.45
2023-02-19T22:31:47.636Z,83.16
2023-02-19T22:34:16.602Z,83.33
2023-02-19T22:36:44.839Z,83.54
2023-02-19T22:39:24.202Z,83.56
2023-02-19T22:41:53.575Z,83.49
2023-02-19T22:44:21.554Z,83.91
2023-02-19T22:46:53.692Z,83.97
2023-02-19T22:49:23.797Z,83.86
2023-02-19T22:52:01.441Z,83.79
2023-02-19T22:54:29.744Z,83.77
2023-02-19T22:56:57.637Z,84.01
2023-02-19T22:59:25.536Z,83.86
2023-02-19T23:01:54.556Z,83.97
2023-02-19T23:04:25.063Z,84.04
2023-02-19T23:06:53.138Z,83.93
2023-02-19T23:09:28.555Z,83.84
2023-02-19T23:12:10.289Z,83.98
2023-02-19T23:14:38.336Z,84.12
2023-02-19T23:17:06.560Z,84.15
2023-02-19T23:19:34.745Z,84.08
2023-02-19T23:22:03.174Z,83.96
2023-02-19T23:24:31.440Z,84.00
2023-02-19T23:27:00.626Z,84.25
2023-02-19T23:29:30.776Z,84.16
2023-02-19T23:32:00.274Z,83.99
2023-02-19T23:34:28.374Z,83.94
2023-02-19T23:36:59.401Z,83.75
2023-02-19T23:39:27.198Z,83.89
2023-02-19T23:41:57.526Z,83.99
2023-02-19T23:44:26.025Z,83.99
2023-02-19T23:46:56.336Z,84.06
2023-02-19T23:49:24.253Z,84.32
2023-02-19T23:51:52.328Z,84.63
2023-02-19T23:54:20.270Z,84.74
2023-02-19T23:56:48.048Z,85.03
2023-02-19T23:59:15.864Z,84.94
